Coe, Indiana
Current Conditions -  °F | °C
As of 12:15 PM on Sunday 25 Jan 2015 (Local Time) from KHNB Reporting Station
Overcast Overcast  
Wind Chill: 34°   Ceiling: 1800
Heat Index: 39°   Visibility: 5mi
Dew Point: 36°   Wind: 7mph
Humidity: 87%   Direction: 170°S
Pressure: 29.62"   Gusts: NA
Location:  38.3488°N, 87.2217°W
Report Text: KHNB 251815Z AUTO 17006KT 5SM BKN018 OVC025 04/02 A2962 RMK AO1
Loading
Personal Weather Stations






























Interactive Weather Map New forecast layout! Learn more

10-Day Weather Forecast

Advertisements
Track Severe Weather on mobile